Time;durP1;ratioP1;P1;durP2;ratioP2;P2;SDS_P1;SDS_P2;PMS_P1;PMS_P2;Temp;Humidity;BMP_temperature;BMP_pressure;BME280_temperature;BME280_humidity;BME280_pressure;Samples;Min_cycle;Max_cycle;Signal;HPM_P1;HPM_P2
2022/04/22 00:02:03;;;;;;;19.35;7.35;;;9.50;90.10;;;;;;5073698;28;20028;-48
2022/04/22 00:04:29;;;;;;;23.08;8.07;;;9.50;90.20;;;;;;5074065;28;20076;-51
2022/04/22 00:06:55;;;;;;;25.20;7.30;;;9.50;90.20;;;;;;5073816;28;20487;-51
2022/04/22 00:09:20;;;;;;;24.23;7.97;;;9.50;90.20;;;;;;5073603;28;20344;-45
2022/04/22 00:11:46;;;;;;;20.83;7.45;;;9.50;90.40;;;;;;5073561;28;20070;-40
2022/04/22 00:14:12;;;;;;;19.17;7.20;;;9.50;90.30;;;;;;5073804;28;20060;-53
2022/04/22 00:16:37;;;;;;;17.52;7.07;;;9.50;90.30;;;;;;5073633;28;20086;-51
2022/04/22 00:19:03;;;;;;;23.08;7.07;;;9.50;90.50;;;;;;5073715;28;20481;-48
2022/04/22 00:21:29;;;;;;;19.02;7.55;;;9.50;90.60;;;;;;5073436;28;20036;-46
2022/04/22 00:23:55;;;;;;;21.75;8.48;;;9.50;90.60;;;;;;5073357;28;20032;-50
2022/04/22 00:26:21;;;;;;;26.27;7.97;;;9.50;90.70;;;;;;5073563;28;20537;-51
2022/04/22 00:28:47;;;;;;;22.88;8.30;;;9.40;91.10;;;;;;5073590;28;20032;-51
2022/04/22 00:31:14;;;;;;;21.08;7.93;;;9.40;90.80;;;;;;5073314;28;20031;-48
2022/04/22 00:33:39;;;;;;;23.67;8.80;;;9.40;90.90;;;;;;5073499;28;20025;-60
2022/04/22 00:36:05;;;;;;;22.50;8.07;;;9.40;90.90;;;;;;5072181;28;20108;-48
2022/04/22 00:38:31;;;;;;;30.20;9.30;;;9.40;90.90;;;;;;5073459;28;20645;-58
2022/04/22 00:40:57;;;;;;;23.35;8.35;;;9.50;91.00;;;;;;5072174;28;20103;-49
2022/04/22 00:43:24;;;;;;;28.23;9.23;;;9.50;91.00;;;;;;5073477;28;20024;-58
2022/04/22 00:45:51;;;;;;;22.90;8.80;;;9.50;91.10;;;;;;5073327;28;20017;-55
2022/04/22 00:48:18;;;;;;;23.60;9.60;;;9.50;91.10;;;;;;5073116;28;20036;-50
2022/04/22 00:50:44;;;;;;;23.10;9.43;;;9.60;91.20;;;;;;5073137;28;20082;-52
2022/04/22 00:53:11;;;;;;;28.15;9.30;;;9.60;90.90;;;;;;5072819;28;20031;-49
2022/04/22 00:55:39;;;;;;;22.15;9.15;;;9.60;90.90;;;;;;5073074;28;20538;-51
2022/04/22 00:58:06;;;;;;;20.48;9.55;;;9.60;91.00;;;;;;5072923;28;20060;-49
2022/04/22 01:00:32;;;;;;;24.38;9.40;;;9.60;91.00;;;;;;5072966;28;20035;-49
2022/04/22 01:02:58;;;;;;;21.10;9.85;;;9.60;90.90;;;;;;5072628;28;20027;-56
2022/04/22 01:10:55;;;;;;;27.25;11.27;;;9.60;91.20;;;;;;5072834;28;20533;-49
2022/04/22 01:13:21;;;;;;;27.02;10.73;;;9.60;91.30;;;;;;5052615;28;20033;-40
2022/04/22 01:15:47;;;;;;;28.60;11.55;;;9.60;91.30;;;;;;5052495;28;20045;-49
2022/04/22 01:18:14;;;;;;;28.40;11.00;;;9.60;91.30;;;;;;5052730;28;20029;-47
2022/04/22 01:20:40;;;;;;;23.67;11.25;;;9.60;91.40;;;;;;5052588;28;20025;-46
2022/04/22 01:23:06;;;;;;;26.65;11.63;;;9.60;91.40;;;;;;5069242;28;20429;-53
2022/04/22 01:25:31;;;;;;;24.80;11.70;;;9.70;91.70;;;;;;5071040;28;20109;-53
2022/04/22 01:27:59;;;;;;;24.70;11.50;;;9.70;91.40;;;;;;5072421;28;20033;-48
2022/04/22 01:30:24;;;;;;;31.23;12.25;;;9.70;91.30;;;;;;5072275;28;20044;-49
2022/04/22 01:32:52;;;;;;;32.95;13.45;;;9.80;91.40;;;;;;5072215;28;20029;-41
2022/04/22 01:35:19;;;;;;;28.88;13.15;;;9.80;91.30;;;;;;5072195;28;20020;-40
2022/04/22 01:37:45;;;;;;;27.08;13.23;;;9.90;91.20;;;;;;5072179;28;20023;-48
2022/04/22 01:40:12;;;;;;;31.23;12.95;;;9.90;91.30;;;;;;5072069;28;20020;-55
2022/04/22 01:42:37;;;;;;;29.60;14.02;;;9.90;91.30;;;;;;5071940;28;20398;-52
2022/04/22 01:45:05;;;;;;;28.17;13.38;;;10.00;91.10;;;;;;5071915;28;20112;-55
2022/04/22 01:47:30;;;;;;;33.90;13.65;;;10.00;91.10;;;;;;5071861;28;20021;-53
2022/04/22 01:49:56;;;;;;;26.10;13.27;;;9.90;91.20;;;;;;5071836;28;20116;-41
2022/04/22 01:52:23;;;;;;;29.05;13.02;;;10.00;91.20;;;;;;5071603;28;20047;-53
2022/04/22 01:54:53;;;;;;;31.95;13.60;;;10.00;91.20;;;;;;5071939;28;20078;-53
2022/04/22 01:57:20;;;;;;;28.90;13.93;;;10.00;91.20;;;;;;5071801;28;20024;-50
2022/04/22 01:59:46;;;;;;;29.92;14.23;;;10.00;91.10;;;;;;5071810;28;20028;-43
2022/04/22 02:02:17;;;;;;;30.67;14.35;;;10.00;91.20;;;;;;5071653;28;20032;-49
2022/04/22 02:04:43;;;;;;;26.90;13.70;;;10.00;91.20;;;;;;5071721;28;20024;-53
2022/04/22 02:07:09;;;;;;;38.08;14.80;;;10.00;91.20;;;;;;5071639;28;20025;-50
2022/04/22 02:09:35;;;;;;;30.83;14.38;;;10.00;91.30;;;;;;5071491;28;20031;-51
2022/04/22 02:12:01;;;;;;;30.33;13.68;;;10.00;91.40;;;;;;5071236;28;20052;-57
2022/04/22 02:14:27;;;;;;;29.00;14.57;;;10.00;91.40;;;;;;5071271;28;20029;-43
2022/04/22 02:16:53;;;;;;;34.97;14.93;;;9.90;91.50;;;;;;5071251;28;20116;-55
2022/04/22 02:19:19;;;;;;;31.48;14.82;;;9.90;91.50;;;;;;5071469;28;20028;-52
2022/04/22 02:21:45;;;;;;;31.95;14.88;;;9.90;91.60;;;;;;5071013;28;20081;-51
2022/04/22 02:24:10;;;;;;;37.38;16.33;;;9.90;91.60;;;;;;5071854;28;20029;-44
2022/04/22 02:29:21;;;;;;;35.30;15.65;;;9.90;91.70;;;;;;5071405;28;20082;-55
2022/04/22 02:31:48;;;;;;;30.85;15.63;;;9.90;91.70;;;;;;5071253;28;20029;-55
2022/04/22 02:34:14;;;;;;;38.60;15.45;;;9.90;91.70;;;;;;5071352;28;20028;-46
2022/04/22 02:36:41;;;;;;;30.92;16.63;;;9.90;91.60;;;;;;5071289;28;20027;-55
2022/04/22 02:39:07;;;;;;;30.15;16.45;;;9.90;91.70;;;;;;5071056;28;20035;-56
2022/04/22 02:47:01;;;;;;;37.10;17.25;;;9.90;91.80;;;;;;5071379;28;20094;-50
2022/04/22 02:49:27;;;;;;;32.47;17.67;;;10.00;91.80;;;;;;5070927;28;20070;-43
2022/04/22 02:51:52;;;;;;;33.85;16.48;;;9.90;91.80;;;;;;5071053;28;20745;-52
2022/04/22 02:54:18;;;;;;;36.17;17.55;;;10.00;91.70;;;;;;5071121;28;20441;-55
2022/04/22 02:56:44;;;;;;;38.10;17.70;;;10.00;91.70;;;;;;5071066;28;20021;-45
2022/04/22 02:59:10;;;;;;;36.10;17.35;;;10.00;91.60;;;;;;5073579;28;20021;-58
2022/04/22 03:01:36;;;;;;;30.33;17.70;;;10.00;91.60;;;;;;5075012;28;20043;-48
2022/04/22 03:04:01;;;;;;;34.40;17.30;;;10.00;91.60;;;;;;5074998;28;20048;-46
2022/04/22 03:06:27;;;;;;;32.42;17.55;;;10.00;91.50;;;;;;5075295;28;20380;-46
2022/04/22 03:08:53;;;;;;;35.67;16.42;;;10.00;91.50;;;;;;5073657;28;20029;-51
2022/04/22 03:11:21;;;;;;;30.10;16.52;;;10.00;91.60;;;;;;5074154;28;20021;-45
2022/04/22 03:13:51;;;;;;;31.55;17.08;;;9.90;91.50;;;;;;5060045;28;20024;-50
2022/04/22 03:16:23;;;;;;;;;;;9.90;91.60;;;;;;5074904;28;20125;-47
2022/04/22 03:18:48;;;;;;;33.78;17.50;;;9.90;91.60;;;;;;5090591;28;19904;-48
2022/04/22 03:21:14;;;;;;;34.50;17.05;;;9.80;91.70;;;;;;5074683;28;20031;-46
2022/04/22 03:23:40;;;;;;;35.75;17.23;;;9.80;91.90;;;;;;5072188;28;20028;-48
2022/04/22 03:26:06;;;;;;;40.42;17.98;;;9.80;91.90;;;;;;5074777;28;20028;-45
2022/04/22 03:28:31;;;;;;;44.28;19.20;;;9.80;91.90;;;;;;5073438;28;20032;-52
2022/04/22 03:30:57;;;;;;;27.25;17.70;;;9.80;91.90;;;;;;5074601;28;20032;-42
2022/04/22 03:33:23;;;;;;;44.33;18.08;;;9.80;92.00;;;;;;5074336;28;20538;-53
2022/04/22 03:35:50;;;;;;;35.30;17.98;;;9.70;92.10;;;;;;5074680;28;20029;-48
2022/04/22 03:38:16;;;;;;;40.38;19.25;;;9.70;92.10;;;;;;5074535;28;20032;-53
2022/04/22 03:40:42;;;;;;;43.65;19.23;;;9.70;92.20;;;;;;5074559;28;20078;-48
2022/04/22 03:43:08;;;;;;;37.63;19.33;;;9.70;92.10;;;;;;5073949;28;20029;-47
2022/04/22 03:45:34;;;;;;;38.97;20.17;;;9.70;92.20;;;;;;5074163;28;20082;-43
2022/04/22 03:47:59;;;;;;;41.03;18.85;;;9.70;92.30;;;;;;5074286;28;20055;-53
2022/04/22 03:50:26;;;;;;;34.85;18.25;;;9.70;92.30;;;;;;5074037;28;20040;-48
2022/04/22 03:52:52;;;;;;;34.20;18.70;;;9.60;92.40;;;;;;5073966;28;20028;-54
2022/04/22 03:55:18;;;;;;;39.22;19.70;;;9.60;92.50;;;;;;5074049;28;20483;-48
2022/04/22 04:00:28;;;;;;;37.97;18.90;;;9.50;92.70;;;;;;5074262;28;20040;-49
2022/04/22 04:02:54;;;;;;;39.15;20.15;;;9.40;92.80;;;;;;5073694;28;20028;-48
2022/04/22 04:05:20;;;;;;;40.88;21.27;;;9.50;92.90;;;;;;5074088;28;20037;-51
2022/04/22 04:07:46;;;;;;;36.53;20.65;;;9.40;93.10;;;;;;5074008;28;20042;-47
2022/04/22 04:15:59;;;;;;;36.63;20.50;;;9.40;93.20;;;;;;5073940;28;20112;-40
2022/04/22 04:18:26;;;;;;;36.78;19.45;;;9.40;93.10;;;;;;5073669;28;20031;-46
2022/04/22 04:23:37;;;;;;;38.25;18.75;;;9.40;93.10;;;;;;5073274;28;20047;-45
2022/04/22 04:26:02;;;;;;;37.20;19.48;;;9.40;93.10;;;;;;5073489;28;20028;-53
2022/04/22 04:28:28;;;;;;;36.00;18.95;;;9.40;93.10;;;;;;5073408;28;20031;-45
2022/04/22 04:30:57;;;;;;;35.22;18.75;;;9.30;93.10;;;;;;5073574;28;20029;-53
2022/04/22 04:33:23;;;;;;;35.95;19.08;;;9.30;93.20;;;;;;5073346;28;20052;-40
2022/04/22 04:35:50;;;;;;;38.40;19.13;;;9.30;93.20;;;;;;5073421;28;20060;-46
2022/04/22 04:38:16;;;;;;;34.33;18.15;;;9.30;93.10;;;;;;5073683;28;20024;-43
2022/04/22 04:40:42;;;;;;;29.67;18.17;;;9.30;93.20;;;;;;5073229;28;20479;-48
2022/04/22 04:43:07;;;;;;;32.42;17.65;;;9.40;93.20;;;;;;5072825;28;20111;-47
2022/04/22 04:45:34;;;;;;;38.10;18.67;;;9.40;93.10;;;;;;5073063;28;20395;-51
2022/04/22 04:47:59;;;;;;;38.05;17.92;;;9.40;93.00;;;;;;5072991;28;20024;-54
2022/04/22 04:50:25;;;;;;;37.55;18.40;;;9.50;92.90;;;;;;5072627;28;20449;-47
2022/04/22 04:52:51;;;;;;;34.97;16.92;;;9.50;92.80;;;;;;5073022;28;20472;-50
2022/04/22 04:55:17;;;;;;;30.77;17.75;;;9.60;92.80;;;;;;5073252;28;20154;-43
2022/04/22 04:57:44;;;;;;;33.20;16.77;;;9.60;92.70;;;;;;5073184;28;20020;-47
2022/04/22 05:00:10;;;;;;;32.50;16.77;;;9.70;92.60;;;;;;5073007;28;20032;-46
2022/04/22 05:02:37;;;;;;;30.13;16.73;;;9.70;92.50;;;;;;5072480;28;20031;-40
2022/04/22 05:05:07;;;;;;;32.15;16.30;;;9.70;92.30;;;;;;5072769;28;20071;-50
2022/04/22 05:07:59;;;;;;;33.63;16.50;;;9.80;92.40;;;;;;5072823;28;20017;-48
2022/04/22 05:10:27;;;;;;;35.97;16.80;;;9.80;92.30;;;;;;5070327;28;20045;-52
2022/04/22 05:12:53;;;;;;;34.38;15.90;;;9.80;92.40;;;;;;5072223;28;20411;-41
2022/04/22 05:15:22;;;;;;;34.75;16.27;;;9.80;92.20;;;;;;5072632;28;20085;-45
2022/04/22 05:17:48;;;;;;;37.50;17.02;;;9.90;92.20;;;;;;5072389;28;20151;-46
2022/04/22 05:20:15;;;;;;;24.65;15.57;;;10.00;92.10;;;;;;5072800;28;20063;-47
2022/04/22 05:22:42;;;;;;;35.40;16.58;;;10.00;92.00;;;;;;5071836;28;20128;-53
2022/04/22 05:25:10;;;;;;;29.27;17.05;;;10.10;91.90;;;;;;5072550;28;20039;-54
2022/04/22 05:27:36;;;;;;;35.45;16.42;;;10.10;91.80;;;;;;5072407;28;20112;-50
2022/04/22 05:32:48;;;;;;;34.28;16.42;;;10.30;91.70;;;;;;5072313;28;20541;-58
2022/04/22 05:35:18;;;;;;;35.92;16.80;;;10.40;91.40;;;;;;5070970;28;20032;-53
2022/04/22 05:37:45;;;;;;;32.55;16.42;;;10.40;91.30;;;;;;5071445;28;20100;-52
2022/04/22 05:40:12;;;;;;;26.52;15.45;;;10.50;91.10;;;;;;5072060;28;20031;-57
2022/04/22 05:42:38;;;;;;;31.02;15.75;;;10.60;91.00;;;;;;5071766;28;20029;-53
2022/04/22 05:45:06;;;;;;;27.10;15.50;;;10.70;90.90;;;;;;5071869;28;20133;-51
2022/04/22 05:47:32;;;;;;;37.75;16.40;;;10.80;90.60;;;;;;5071794;28;20032;-50
2022/04/22 05:49:58;;;;;;;31.23;14.88;;;10.90;90.40;;;;;;5071609;28;20499;-46
2022/04/22 05:52:24;;;;;;;28.30;14.98;;;10.90;90.10;;;;;;5071277;28;20090;-43
2022/04/22 05:54:50;;;;;;;27.02;14.77;;;11.10;90.20;;;;;;5070744;28;20040;-42
2022/04/22 05:57:15;;;;;;;30.60;15.95;;;11.30;89.30;;;;;;5067046;28;20028;-47
2022/04/22 05:59:41;;;;;;;31.27;16.95;;;11.50;88.10;;;;;;5071357;28;20060;-50
2022/04/22 06:02:07;;;;;;;29.15;16.02;;;11.60;87.60;;;;;;5070836;28;20067;-47
2022/04/22 06:04:33;;;;;;;28.20;16.45;;;11.70;87.10;;;;;;5071588;28;20032;-49
2022/04/22 06:06:59;;;;;;;28.70;16.58;;;11.80;86.50;;;;;;5070413;28;20028;-43
2022/04/22 06:12:09;;;;;;;39.33;17.17;;;12.00;85.40;;;;;;5070406;28;20047;-48
2022/04/22 06:14:35;;;;;;;31.38;16.52;;;12.20;85.10;;;;;;5070594;28;20127;-57
2022/04/22 06:17:01;;;;;;;30.80;16.58;;;12.20;84.70;;;;;;5069085;28;20124;-47
2022/04/22 06:19:27;;;;;;;27.60;16.60;;;12.20;84.20;;;;;;5070574;28;20112;-54
2022/04/22 06:21:52;;;;;;;30.15;16.75;;;12.20;84.20;;;;;;5070908;28;20056;-43
2022/04/22 06:24:18;;;;;;;28.70;16.67;;;12.30;84.40;;;;;;5071134;28;20432;-41
2022/04/22 06:26:43;;;;;;;33.58;16.95;;;12.40;84.10;;;;;;5071358;28;20111;-45
2022/04/22 06:29:10;;;;;;;33.85;16.65;;;12.70;83.60;;;;;;5071225;28;20067;-42
2022/04/22 06:31:36;;;;;;;28.80;15.88;;;13.20;81.10;;;;;;5070786;28;20023;-49
2022/04/22 06:34:02;;;;;;;30.00;16.60;;;13.70;79.90;;;;;;5068214;28;20059;-55
2022/04/22 06:36:29;;;;;;;25.73;15.50;;;14.20;76.90;;;;;;5069086;28;20130;-52
2022/04/22 06:38:58;;;;;;;27.38;15.95;;;14.70;74.50;;;;;;5069576;28;20074;-47
2022/04/22 06:46:54;;;;;;;29.70;17.25;;;16.10;68.40;;;;;;5070596;28;20112;-40
2022/04/22 06:49:21;;;;;;;28.33;17.60;;;16.10;68.40;;;;;;5070737;28;20032;-42
2022/04/22 06:51:46;;;;;;;27.85;17.35;;;16.00;68.20;;;;;;5070884;28;20476;-51
2022/04/22 06:54:12;;;;;;;33.47;18.65;;;15.70;69.70;;;;;;5070868;28;20033;-41
2022/04/22 06:56:40;;;;;;;32.22;18.52;;;16.40;67.90;;;;;;5070290;28;20025;-54
2022/04/22 06:59:06;;;;;;;28.80;17.65;;;17.10;66.80;;;;;;5070296;28;20025;-59
2022/04/22 07:01:33;;;;;;;31.75;16.90;;;17.60;63.40;;;;;;5070115;28;20032;-55
2022/04/22 07:04:00;;;;;;;27.33;16.40;;;17.90;62.10;;;;;;5070367;28;20025;-53
2022/04/22 07:06:26;;;;;;;27.13;17.80;;;18.40;62.60;;;;;;5069754;28;20535;-44
2022/04/22 07:08:52;;;;;;;21.23;15.52;;;19.00;58.20;;;;;;5070620;28;20119;-45
2022/04/22 07:11:26;;;;;;;26.63;17.95;;;19.30;59.00;;;;;;5070813;28;20163;-41
2022/04/22 07:13:52;;;;;;;25.45;16.80;;;19.00;56.90;;;;;;5070677;28;20025;-39
2022/04/22 07:16:18;;;;;;;26.35;16.45;;;19.60;55.70;;;;;;5069166;28;20056;-41
2022/04/22 07:18:44;;;;;;;30.23;17.88;;;19.30;54.70;;;;;;5070810;28;20028;-42
2022/04/22 07:21:10;;;;;;;23.70;17.08;;;18.60;56.90;;;;;;5069637;28;20031;-49
2022/04/22 07:23:36;;;;;;;25.85;16.92;;;18.70;57.50;;;;;;5069788;28;20033;-52
2022/04/22 07:26:06;;;;;;;27.08;17.00;;;19.00;57.20;;;;;;5070734;28;20491;-51
2022/04/22 07:28:33;;;;;;;25.98;16.75;;;18.80;57.00;;;;;;5070604;28;20048;-53
2022/04/22 07:30:59;;;;;;;24.83;17.02;;;18.80;59.50;;;;;;5069834;28;20039;-45
2022/04/22 07:33:26;;;;;;;26.25;17.27;;;18.10;58.20;;;;;;5069927;28;20109;-40
2022/04/22 07:35:52;;;;;;;25.17;17.10;;;17.60;59.80;;;;;;5070095;28;20020;-42
2022/04/22 07:38:18;;;;;;;29.33;17.67;;;17.20;62.10;;;;;;5069992;28;20066;-46
2022/04/22 07:40:49;;;;;;;23.38;16.92;;;17.10;64.10;;;;;;5069765;28;20054;-48
2022/04/22 07:48:45;;;;;;;22.52;15.02;;;18.70;58.30;;;;;;5073836;28;20182;-53
2022/04/22 07:51:11;;;;;;;25.08;15.35;;;19.10;59.50;;;;;;5074042;28;20032;-50
2022/04/22 07:53:36;;;;;;;21.17;15.35;;;19.50;57.10;;;;;;5074018;28;20020;-42
2022/04/22 07:56:06;;;;;;;22.58;14.65;;;20.20;53.70;;;;;;5074104;28;20125;-47
2022/04/22 07:58:32;;;;;;;22.05;15.63;;;19.90;53.80;;;;;;5074529;28;20160;-50
2022/04/22 08:00:58;;;;;;;26.77;15.57;;;19.60;53.00;;;;;;5073318;28;20436;-49
2022/04/22 08:03:24;;;;;;;25.45;16.45;;;18.20;57.50;;;;;;5071383;28;20242;-49
2022/04/22 08:05:50;;;;;;;22.15;15.73;;;17.70;60.90;;;;;;5073772;28;20032;-55
2022/04/22 08:08:16;;;;;;;19.48;15.07;;;18.40;60.70;;;;;;5073521;28;20052;-44
2022/04/22 08:10:42;;;;;;;21.63;13.90;;;19.40;58.10;;;;;;5073967;28;20054;-47
2022/04/22 08:13:08;;;;;;;20.33;14.80;;;20.20;53.60;;;;;;5073701;28;20488;-55
2022/04/22 08:15:35;;;;;;;20.75;14.15;;;19.50;53.10;;;;;;5073417;28;20024;-45
2022/04/22 08:18:02;;;;;;;24.42;14.57;;;19.40;55.00;;;;;;5073543;28;20071;-51
2022/04/22 08:20:31;;;;;;;20.30;12.55;;;19.80;54.40;;;;;;5073436;28;20039;-50
2022/04/22 08:22:58;;;;;;;24.50;14.73;;;19.80;55.90;;;;;;5073364;28;20028;-49
2022/04/22 08:25:24;;;;;;;21.58;13.73;;;19.30;54.60;;;;;;5073417;28;20442;-54
2022/04/22 08:27:51;;;;;;;21.20;14.32;;;18.50;55.70;;;;;;5073416;28;20036;-58
2022/04/22 08:30:17;;;;;;;22.83;14.70;;;18.30;57.70;;;;;;5073391;28;20119;-51
2022/04/22 08:32:42;;;;;;;23.38;12.98;;;18.70;57.80;;;;;;5072789;28;20108;-48
2022/04/22 08:35:08;;;;;;;23.40;13.18;;;19.30;54.80;;;;;;5073238;28;20060;-46
2022/04/22 08:37:34;;;;;;;19.77;13.05;;;18.90;53.80;;;;;;5073088;28;20056;-50
2022/04/22 08:40:00;;;;;;;17.35;12.00;;;18.20;56.40;;;;;;5063172;28;20635;-49
2022/04/22 08:42:26;;;;;;;20.40;12.80;;;18.00;56.50;;;;;;5071929;28;20024;-61
2022/04/22 08:44:52;;;;;;;19.40;12.85;;;17.20;57.30;;;;;;5073123;28;20379;-49
2022/04/22 08:50:06;;;;;;;20.40;13.10;;;17.00;61.90;;;;;;5072909;28;20048;-58
2022/04/22 08:52:34;;;;;;;21.50;13.05;;;16.80;59.20;;;;;;5072364;28;20020;-54
2022/04/22 08:55:03;;;;;;;22.55;13.38;;;16.70;60.60;;;;;;5071564;28;20040;-49
2022/04/22 08:57:29;;;;;;;19.40;13.27;;;16.50;62.00;;;;;;5071465;28;20476;-58
2022/04/22 09:00:05;;;;;;;20.13;12.98;;;16.40;63.10;;;;;;5073010;28;20276;-50
2022/04/22 09:02:34;;;;;;;17.17;12.55;;;16.60;64.00;;;;;;5072159;28;20016;-39
2022/04/22 09:05:00;;;;;;;18.05;11.75;;;16.40;61.00;;;;;;5071743;28;20044;-57
2022/04/22 09:07:26;;;;;;;16.40;11.38;;;16.70;60.20;;;;;;5071866;28;20024;-58
2022/04/22 09:09:53;;;;;;;21.25;11.18;;;16.40;60.40;;;;;;5072323;28;20041;-53
2022/04/22 09:12:21;;;;;;;19.50;10.75;;;16.70;60.00;;;;;;5072118;28;20471;-57
2022/04/22 09:14:52;;;;;;;18.02;10.43;;;17.10;57.40;;;;;;5072460;28;20029;-57
2022/04/22 09:17:26;;;;;;;15.75;9.85;;;17.10;56.10;;;;;;5072203;28;20080;-59
2022/04/22 09:19:53;;;;;;;16.08;10.32;;;16.80;56.40;;;;;;5072205;28;20024;-55
2022/04/22 09:22:26;;;;;;;14.95;9.65;;;16.20;58.50;;;;;;5072584;28;20021;-56
2022/04/22 09:24:57;;;;;;;15.10;9.57;;;16.60;60.20;;;;;;5071228;28;20475;-53
2022/04/22 09:27:34;;;;;;;19.33;10.15;;;17.00;57.60;;;;;;5072098;28;20420;-54
2022/04/22 09:30:00;;;;;;;15.95;9.82;;;16.90;57.70;;;;;;5072236;28;20506;-58
2022/04/22 09:32:28;;;;;;;15.38;9.93;;;17.40;56.60;;;;;;5072310;28;20035;-52
2022/04/22 09:35:08;;;;;;;13.25;9.70;;;18.40;56.60;;;;;;5071044;28;20025;-48
2022/04/22 09:43:24;;;;;;;12.38;9.30;;;18.50;52.10;;;;;;5072429;28;20178;-56
2022/04/22 09:45:52;;;;;;;13.13;9.95;;;18.20;54.10;;;;;;5072016;28;20032;-56
2022/04/22 09:48:20;;;;;;;13.77;9.40;;;17.50;54.10;;;;;;5072479;28;20031;-57
2022/04/22 09:50:54;;;;;;;17.98;10.43;;;17.30;56.10;;;;;;5071892;28;20277;-60
2022/04/22 09:53:33;;;;;;;15.88;10.25;;;17.10;57.10;;;;;;5071925;28;20023;-57
2022/04/22 09:56:10;;;;;;;14.95;10.10;;;16.90;59.70;;;;;;5071659;28;20368;-56
2022/04/22 09:58:36;;;;;;;15.50;11.25;;;16.60;60.10;;;;;;5071589;28;20021;-54
2022/04/22 10:01:06;;;;;;;18.20;10.25;;;16.60;62.00;;;;;;5071972;28;20063;-53
2022/04/22 10:03:37;;;;;;;19.45;10.93;;;16.20;61.80;;;;;;5071816;28;20115;-55
2022/04/22 10:06:04;;;;;;;16.10;10.88;;;15.80;64.00;;;;;;5071762;28;20060;-50
2022/04/22 10:08:37;;;;;;;16.42;11.07;;;15.60;64.00;;;;;;5071591;28;20024;-54
2022/04/22 10:11:07;;;;;;;17.80;10.18;;;15.90;64.20;;;;;;5071564;28;20025;-46
2022/04/22 10:13:45;;;;;;;16.70;10.88;;;17.40;60.50;;;;;;5071591;28;20016;-47
2022/04/22 10:16:12;;;;;;;15.10;9.57;;;18.30;56.30;;;;;;5071480;28;20063;-53
2022/04/22 10:18:39;;;;;;;15.48;9.48;;;19.90;53.30;;;;;;5071525;28;20029;-57
2022/04/22 10:21:05;;;;;;;14.77;9.50;;;19.20;52.30;;;;;;5070048;28;20459;-57
2022/04/22 10:23:32;;;;;;;11.68;9.23;;;18.90;53.70;;;;;;5071396;28;20028;-54
2022/04/22 10:25:58;;;;;;;15.52;9.55;;;18.30;53.10;;;;;;5071443;28;20024;-60
2022/04/22 10:28:26;;;;;;;14.32;10.25;;;17.90;57.00;;;;;;5071171;28;20017;-54
2022/04/22 10:30:54;;;;;;;13.25;9.93;;;17.50;56.10;;;;;;5071301;28;20081;-56
2022/04/22 10:33:25;;;;;;;13.88;9.65;;;16.90;58.30;;;;;;5071449;28;20111;-60
2022/04/22 10:35:59;;;;;;;15.55;9.95;;;16.70;60.30;;;;;;5071364;28;20082;-46
2022/04/22 10:38:39;;;;;;;16.35;10.10;;;16.80;59.40;;;;;;5071043;28;20148;-57
2022/04/22 10:41:19;;;;;;;14.65;10.27;;;16.90;58.60;;;;;;5071153;28;20501;-53
2022/04/22 10:49:39;;;;;;;14.20;9.95;;;18.50;53.80;;;;;;5071221;28;20236;-54
2022/04/22 10:52:20;;;;;;;14.65;9.20;;;18.90;55.50;;;;;;5070997;28;20031;-46
2022/04/22 10:54:52;;;;;;;18.45;9.95;;;19.80;53.70;;;;;;5071004;28;20031;-55
2022/04/22 10:57:20;;;;;;;13.90;10.02;;;18.80;51.80;;;;;;5069914;28;20075;-47
2022/04/22 11:00:00;;;;;;;15.95;10.65;;;17.80;54.80;;;;;;5071296;28;20025;-49
2022/04/22 11:02:31;;;;;;;13.93;10.85;;;17.60;55.00;;;;;;5071147;28;20021;-57
2022/04/22 11:05:32;;;;;;;12.95;10.02;;;18.20;54.60;;;;;;5071030;28;20017;-54
2022/04/22 11:07:58;;;;;;;15.48;10.18;;;19.30;54.30;;;;;;5028579;28;20053;-47
2022/04/22 11:10:29;;;;;;;14.07;9.70;;;20.40;48.00;;;;;;5061936;28;20059;-55
2022/04/22 11:12:59;;;;;;;13.85;9.40;;;21.20;46.90;;;;;;5070827;28;20037;-50
2022/04/22 11:15:43;;;;;;;12.93;9.43;;;21.00;48.30;;;;;;5070818;28;20028;-52
2022/04/22 11:18:10;;;;;;;16.60;10.38;;;20.60;47.10;;;;;;5070718;28;20043;-56
2022/04/22 11:20:52;;;;;;;13.88;9.98;;;19.30;49.30;;;;;;5073995;28;20024;-54
2022/04/22 11:23:18;;;;;;;16.13;10.55;;;19.00;51.40;;;;;;5074761;28;20081;-45
2022/04/22 11:25:46;;;;;;;16.25;10.38;;;17.80;53.90;;;;;;5074780;28;20118;-57
2022/04/22 11:28:12;;;;;;;17.13;10.45;;;17.50;56.20;;;;;;5074471;28;20025;-48
2022/04/22 11:30:38;;;;;;;17.73;9.23;;;17.70;56.80;;;;;;5074541;28;20040;-50
2022/04/22 11:33:19;;;;;;;18.95;9.93;;;18.20;56.30;;;;;;5074444;28;20032;-49
2022/04/22 11:35:49;;;;;;;15.63;9.80;;;18.60;55.00;;;;;;5074389;28;20037;-55
2022/04/22 11:38:15;;;;;;;15.30;9.45;;;18.50;54.80;;;;;;5074370;28;20472;-54
2022/04/22 11:40:44;;;;;;;13.25;9.90;;;18.60;54.70;;;;;;5074335;28;20062;-53
2022/04/22 11:43:12;;;;;;;14.27;9.90;;;18.30;55.20;;;;;;5074293;28;20100;-55
2022/04/22 11:45:41;;;;;;;13.93;10.00;;;17.90;56.50;;;;;;5074196;28;20067;-50
2022/04/22 11:48:11;;;;;;;16.80;10.38;;;17.40;57.00;;;;;;5074243;28;20016;-54
2022/04/22 11:50:41;;;;;;;16.00;10.77;;;17.00;58.70;;;;;;5074057;28;20110;-54
2022/04/22 11:53:18;;;;;;;15.77;10.00;;;16.80;60.20;;;;;;5074046;28;20035;-54
2022/04/22 11:55:45;;;;;;;16.58;10.07;;;17.00;61.90;;;;;;5074343;28;20035;-57
2022/04/22 11:58:12;;;;;;;16.73;10.20;;;17.00;59.80;;;;;;5074249;28;20017;-52
2022/04/22 12:06:14;;;;;;;11.85;9.15;;;15.80;61.40;;;;;;5073901;28;20039;-51
2022/04/22 12:08:53;;;;;;;15.45;9.90;;;15.70;62.80;;;;;;5073665;28;20036;-55
2022/04/22 12:11:19;;;;;;;13.82;9.35;;;15.80;62.20;;;;;;5074000;28;20029;-50
2022/04/22 12:13:49;;;;;;;18.25;9.98;;;15.70;61.90;;;;;;5073753;28;20025;-52
2022/04/22 12:16:26;;;;;;;14.30;9.20;;;15.70;61.90;;;;;;5073236;28;20072;-48
2022/04/22 12:18:56;;;;;;;15.07;8.75;;;16.30;63.40;;;;;;5072778;28;20035;-51
2022/04/22 12:21:24;;;;;;;13.05;8.55;;;17.00;59.10;;;;;;5072667;28;20060;-54
2022/04/22 12:23:59;;;;;;;18.27;9.45;;;17.80;57.80;;;;;;5072543;28;20054;-58
2022/04/22 12:26:26;;;;;;;13.48;7.43;;;18.60;54.40;;;;;;5073360;28;20025;-58
2022/04/22 12:29:08;;;;;;;12.68;7.80;;;19.30;52.50;;;;;;5072336;28;20036;-49
2022/04/22 12:31:33;;;;;;;13.80;8.23;;;18.70;50.70;;;;;;5072283;28;20055;-44
2022/04/22 12:34:07;;;;;;;12.18;7.72;;;17.90;53.80;;;;;;5072356;28;20395;-57
2022/04/22 12:36:38;;;;;;;11.23;6.97;;;17.30;54.50;;;;;;5072794;28;20012;-50
2022/04/22 12:39:11;;;;;;;10.68;7.15;;;17.50;56.50;;;;;;5072944;28;20086;-48
2022/04/22 12:41:45;;;;;;;14.82;7.38;;;17.50;55.60;;;;;;5073234;28;20021;-43
2022/04/22 12:44:13;;;;;;;14.25;8.15;;;17.80;55.50;;;;;;5073360;28;20046;-49
2022/04/22 12:52:30;;;;;;;11.27;8.07;;;17.10;55.90;;;;;;5090935;28;20086;-48
2022/04/22 12:55:05;;;;;;;13.20;8.70;;;16.70;56.30;;;;;;5080988;28;20077;-49
2022/04/22 12:57:30;;;;;;;12.93;8.18;;;16.40;57.00;;;;;;5061349;28;20048;-49
2022/04/22 12:59:57;;;;;;;17.00;8.90;;;16.30;58.40;;;;;;5065357;28;20017;-47
2022/04/22 13:02:33;;;;;;;13.00;8.15;;;16.10;58.30;;;;;;5072361;28;20229;-61
2022/04/22 13:05:00;;;;;;;13.35;8.52;;;15.90;59.40;;;;;;5070867;28;20096;-48
2022/04/22 13:07:49;;;;;;;16.05;8.60;;;16.00;60.30;;;;;;5072186;28;20021;-53
2022/04/22 13:10:18;;;;;;;14.77;9.85;;;16.30;61.00;;;;;;5072063;28;20028;-47
2022/04/22 13:12:44;;;;;;;12.82;7.57;;;16.40;55.60;;;;;;5071963;28;20024;-50
2022/04/22 13:15:13;;;;;;;14.80;8.60;;;16.10;57.60;;;;;;5071639;28;20017;-48
2022/04/22 13:17:43;;;;;;;18.83;9.53;;;15.70;58.70;;;;;;5071737;28;20040;-44
2022/04/22 13:20:12;;;;;;;13.98;9.43;;;15.60;59.80;;;;;;5071741;28;20069;-53
2022/04/22 13:22:38;;;;;;;14.00;8.65;;;15.50;60.70;;;;;;5071914;28;20495;-52
2022/04/22 13:25:04;;;;;;;16.15;10.13;;;15.80;61.50;;;;;;5070278;28;20412;-46
2022/04/22 13:27:31;;;;;;;13.80;8.15;;;15.60;59.60;;;;;;5071592;28;20020;-47
2022/04/22 13:29:57;;;;;;;14.25;8.23;;;16.00;62.60;;;;;;5071517;28;20154;-53
2022/04/22 13:32:23;;;;;;;12.80;8.55;;;16.20;59.80;;;;;;5071651;28;20020;-40
2022/04/22 13:34:48;;;;;;;16.15;8.55;;;16.20;57.40;;;;;;5071642;28;20021;-44
2022/04/22 13:37:14;;;;;;;14.48;8.18;;;16.30;57.10;;;;;;5071020;28;20027;-52
2022/04/22 13:39:40;;;;;;;16.02;9.35;;;16.40;57.70;;;;;;5071390;28;20078;-54
2022/04/22 13:42:05;;;;;;;20.27;10.63;;;16.50;58.20;;;;;;5071389;28;20364;-44
2022/04/22 13:52:45;;;;;;;17.50;11.13;;;16.00;61.40;;;;;;5071449;28;20153;-48